Birchy Bay, Canada
Current Conditions -  °F | °C
As of 2:00 PM on Sunday 21 Dec 2014 (Local Time) from CYQX Reporting Station
Overcast Overcast  
Wind Chill: 11°   Ceiling: 1100
Heat Index: 23°   Visibility: 20mi
Dew Point: 19°   Wind: 13mph
Humidity: 86%   Direction: 300°WNW
Pressure: 30.24"   Gusts: NA
Location:  49.33°N, 54.73°W
Report Text: CYQX 211700Z 30011KT 20SM OVC011 M05/M07 A3024 RMK SC8 SLP249
Loading
Personal Weather Stations






























Interactive Weather Map New forecast layout! Learn more

10-Day Weather Forecast

Advertisements
Track Severe Weather on mobile